Carbonear, Canada
Current Conditions -  °F | °C
As of 3:00 AM on Saturday 25 Oct 2014 (Local Time) from CYYT Reporting Station
Moderate Fog Moderate Fog  
Wind Chill: 52°   Ceiling: 200
Heat Index: 52°   Visibility: 0.37mi
Dew Point: 52°   Wind: 6mph
Humidity: 100%   Direction: 280°W
Pressure: 29.51"   Gusts: NA
Location:  47.73°N, 53.25°W
Report Text: CYYT 250500Z 28005KT 3/8SM FG VV002 11/11 A2951 RMK FG8 SLP994 DENSITY ALT 500FT
Loading
Personal Weather Stations






























Interactive Weather Map
Tropical Storm Tracking
New forecast layout! Learn more

10-Day Weather Forecast

Advertisements
Track Severe Weather on mobile